sensor_id;sensor_type;location;lat;lon;timestamp;P1;durP1;ratioP1;P2;durP2;ratioP2
75864;SDS011;64510;46.704;38.274;2023-02-08T00:00:16;19.23;;;11.88;;
75864;SDS011;64510;46.704;38.274;2023-02-08T00:02:42;16.52;;;10.30;;
75864;SDS011;64510;46.704;38.274;2023-02-08T00:05:08;19.67;;;12.68;;
75864;SDS011;64510;46.704;38.274;2023-02-08T00:07:34;22.83;;;12.80;;
75864;SDS011;64510;46.704;38.274;2023-02-08T00:10:00;17.58;;;12.35;;
75864;SDS011;64510;46.704;38.274;2023-02-08T00:12:29;17.42;;;11.52;;
75864;SDS011;64510;46.704;38.274;2023-02-08T00:14:55;17.95;;;10.63;;
75864;SDS011;64510;46.704;38.274;2023-02-08T00:17:21;23.55;;;13.68;;
75864;SDS011;64510;46.704;38.274;2023-02-08T00:19:46;23.27;;;13.52;;
75864;SDS011;64510;46.704;38.274;2023-02-08T00:22:12;19.88;;;13.38;;
75864;SDS011;64510;46.704;38.274;2023-02-08T00:24:38;22.17;;;14.48;;
75864;SDS011;64510;46.704;38.274;2023-02-08T00:27:04;16.13;;;11.48;;
75864;SDS011;64510;46.704;38.274;2023-02-08T00:29:30;19.98;;;12.32;;
75864;SDS011;64510;46.704;38.274;2023-02-08T00:31:57;18.90;;;12.23;;
75864;SDS011;64510;46.704;38.274;2023-02-08T00:34:23;19.70;;;12.15;;
75864;SDS011;64510;46.704;38.274;2023-02-08T00:36:49;14.27;;;10.10;;
75864;SDS011;64510;46.704;38.274;2023-02-08T00:39:15;13.70;;;8.13;;
75864;SDS011;64510;46.704;38.274;2023-02-08T00:41:41;17.13;;;11.77;;
75864;SDS011;64510;46.704;38.274;2023-02-08T00:44:07;15.00;;;8.02;;
75864;SDS011;64510;46.704;38.274;2023-02-08T00:46:33;18.65;;;12.40;;
75864;SDS011;64510;46.704;38.274;2023-02-08T00:48:59;19.70;;;13.68;;
75864;SDS011;64510;46.704;38.274;2023-02-08T00:51:25;15.05;;;10.73;;
75864;SDS011;64510;46.704;38.274;2023-02-08T00:53:51;18.98;;;11.38;;
75864;SDS011;64510;46.704;38.274;2023-02-08T00:56:17;19.67;;;12.55;;
75864;SDS011;64510;46.704;38.274;2023-02-08T00:58:43;23.33;;;13.45;;
75864;SDS011;64510;46.704;38.274;2023-02-08T01:01:09;16.08;;;10.70;;
75864;SDS011;64510;46.704;38.274;2023-02-08T01:03:37;23.02;;;11.25;;
75864;SDS011;64510;46.704;38.274;2023-02-08T01:06:05;16.58;;;10.57;;
75864;SDS011;64510;46.704;38.274;2023-02-08T01:08:33;19.05;;;11.93;;
75864;SDS011;64510;46.704;38.274;2023-02-08T01:11:06;18.05;;;9.60;;
75864;SDS011;64510;46.704;38.274;2023-02-08T01:13:37;22.75;;;10.73;;
75864;SDS011;64510;46.704;38.274;2023-02-08T01:16:04;13.60;;;9.52;;
75864;SDS011;64510;46.704;38.274;2023-02-08T01:18:38;17.00;;;11.80;;
75864;SDS011;64510;46.704;38.274;2023-02-08T01:21:07;24.60;;;12.63;;
75864;SDS011;64510;46.704;38.274;2023-02-08T01:23:37;16.00;;;11.23;;
75864;SDS011;64510;46.704;38.274;2023-02-08T01:26:03;19.67;;;12.65;;
75864;SDS011;64510;46.704;38.274;2023-02-08T01:28:30;20.63;;;12.50;;
75864;SDS011;64510;46.704;38.274;2023-02-08T01:30:57;20.60;;;11.18;;
75864;SDS011;64510;46.704;38.274;2023-02-08T01:33:23;14.07;;;9.82;;
75864;SDS011;64510;46.704;38.274;2023-02-08T01:35:50;17.23;;;10.85;;
75864;SDS011;64510;46.704;38.274;2023-02-08T01:38:18;16.73;;;10.43;;
75864;SDS011;64510;46.704;38.274;2023-02-08T01:40:44;19.25;;;11.30;;
75864;SDS011;64510;46.704;38.274;2023-02-08T01:43:21;15.68;;;10.68;;
75864;SDS011;64510;46.704;38.274;2023-02-08T01:45:50;22.88;;;11.02;;
75864;SDS011;64510;46.704;38.274;2023-02-08T01:48:26;18.92;;;10.15;;
75864;SDS011;64510;46.704;38.274;2023-02-08T01:53:32;17.77;;;11.88;;
75864;SDS011;64510;46.704;38.274;2023-02-08T01:56:01;13.60;;;8.98;;
75864;SDS011;64510;46.704;38.274;2023-02-08T01:58:31;15.07;;;8.70;;
75864;SDS011;64510;46.704;38.274;2023-02-08T02:01:02;13.43;;;9.88;;
75864;SDS011;64510;46.704;38.274;2023-02-08T02:03:28;18.75;;;11.18;;
75864;SDS011;64510;46.704;38.274;2023-02-08T02:05:56;18.60;;;10.75;;
75864;SDS011;64510;46.704;38.274;2023-02-08T02:08:29;14.57;;;8.05;;
75864;SDS011;64510;46.704;38.274;2023-02-08T02:10:55;14.35;;;10.52;;
75864;SDS011;64510;46.704;38.274;2023-02-08T02:13:22;15.65;;;10.77;;
75864;SDS011;64510;46.704;38.274;2023-02-08T02:15:50;24.40;;;12.93;;
75864;SDS011;64510;46.704;38.274;2023-02-08T02:18:19;17.52;;;9.90;;
75864;SDS011;64510;46.704;38.274;2023-02-08T02:34:51;20.65;;;12.10;;
75864;SDS011;64510;46.704;38.274;2023-02-08T02:40:17;17.50;;;9.68;;
75864;SDS011;64510;46.704;38.274;2023-02-08T02:43:15;18.38;;;11.32;;
75864;SDS011;64510;46.704;38.274;2023-02-08T02:54:10;15.23;;;9.40;;
75864;SDS011;64510;46.704;38.274;2023-02-08T02:56:44;17.05;;;10.68;;
75864;SDS011;64510;46.704;38.274;2023-02-08T02:59:14;16.92;;;11.32;;
75864;SDS011;64510;46.704;38.274;2023-02-08T03:01:41;22.25;;;12.90;;
75864;SDS011;64510;46.704;38.274;2023-02-08T03:09:45;17.30;;;11.93;;
75864;SDS011;64510;46.704;38.274;2023-02-08T03:22:32;16.88;;;11.70;;
75864;SDS011;64510;46.704;38.274;2023-02-08T03:25:13;14.35;;;8.43;;
75864;SDS011;64510;46.704;38.274;2023-02-08T03:30:46;20.65;;;11.43;;
75864;SDS011;64510;46.704;38.274;2023-02-08T03:33:20;18.20;;;11.25;;
75864;SDS011;64510;46.704;38.274;2023-02-08T03:35:53;19.15;;;11.98;;
75864;SDS011;64510;46.704;38.274;2023-02-08T03:38:30;16.90;;;9.75;;
75864;SDS011;64510;46.704;38.274;2023-02-08T03:41:01;16.83;;;10.18;;
75864;SDS011;64510;46.704;38.274;2023-02-08T03:43:32;15.88;;;9.23;;
75864;SDS011;64510;46.704;38.274;2023-02-08T03:48:27;17.27;;;9.40;;
75864;SDS011;64510;46.704;38.274;2023-02-08T03:50:55;19.02;;;10.63;;
75864;SDS011;64510;46.704;38.274;2023-02-08T03:53:24;13.50;;;8.10;;
75864;SDS011;64510;46.704;38.274;2023-02-08T03:55:54;13.88;;;9.73;;
75864;SDS011;64510;46.704;38.274;2023-02-08T03:58:26;16.40;;;10.80;;
75864;SDS011;64510;46.704;38.274;2023-02-08T04:01:02;14.13;;;7.20;;
75864;SDS011;64510;46.704;38.274;2023-02-08T04:03:33;15.82;;;9.40;;
75864;SDS011;64510;46.704;38.274;2023-02-08T04:06:00;11.38;;;7.25;;
75864;SDS011;64510;46.704;38.274;2023-02-08T04:08:27;20.25;;;9.55;;
75864;SDS011;64510;46.704;38.274;2023-02-08T04:10:53;19.83;;;9.93;;
75864;SDS011;64510;46.704;38.274;2023-02-08T04:13:19;15.07;;;8.77;;
75864;SDS011;64510;46.704;38.274;2023-02-08T04:15:45;14.55;;;8.88;;
75864;SDS011;64510;46.704;38.274;2023-02-08T04:18:11;12.77;;;7.40;;
75864;SDS011;64510;46.704;38.274;2023-02-08T04:20:37;14.30;;;8.82;;
75864;SDS011;64510;46.704;38.274;2023-02-08T04:23:03;13.27;;;8.02;;
75864;SDS011;64510;46.704;38.274;2023-02-08T04:25:29;16.92;;;8.48;;
75864;SDS011;64510;46.704;38.274;2023-02-08T04:27:55;15.40;;;10.23;;
75864;SDS011;64510;46.704;38.274;2023-02-08T04:30:20;14.65;;;9.23;;
75864;SDS011;64510;46.704;38.274;2023-02-08T04:32:46;15.18;;;9.25;;
75864;SDS011;64510;46.704;38.274;2023-02-08T04:35:12;18.27;;;8.75;;
75864;SDS011;64510;46.704;38.274;2023-02-08T04:37:38;16.70;;;11.60;;
75864;SDS011;64510;46.704;38.274;2023-02-08T04:40:04;16.65;;;8.90;;
75864;SDS011;64510;46.704;38.274;2023-02-08T04:42:30;17.95;;;10.45;;
75864;SDS011;64510;46.704;38.274;2023-02-08T04:44:56;14.52;;;8.45;;
75864;SDS011;64510;46.704;38.274;2023-02-08T04:47:21;15.30;;;8.25;;
75864;SDS011;64510;46.704;38.274;2023-02-08T04:49:47;18.90;;;8.57;;
75864;SDS011;64510;46.704;38.274;2023-02-08T04:52:13;14.18;;;8.73;;
75864;SDS011;64510;46.704;38.274;2023-02-08T04:54:39;18.27;;;10.30;;
75864;SDS011;64510;46.704;38.274;2023-02-08T04:57:05;12.82;;;8.88;;
75864;SDS011;64510;46.704;38.274;2023-02-08T04:59:31;13.80;;;9.80;;
75864;SDS011;64510;46.704;38.274;2023-02-08T05:01:56;12.13;;;8.25;;
75864;SDS011;64510;46.704;38.274;2023-02-08T05:04:22;11.90;;;8.25;;
75864;SDS011;64510;46.704;38.274;2023-02-08T05:06:48;16.50;;;8.90;;
75864;SDS011;64510;46.704;38.274;2023-02-08T05:09:14;13.90;;;8.05;;
75864;SDS011;64510;46.704;38.274;2023-02-08T05:11:40;15.60;;;8.20;;
75864;SDS011;64510;46.704;38.274;2023-02-08T05:14:06;13.82;;;8.27;;
75864;SDS011;64510;46.704;38.274;2023-02-08T05:16:32;12.43;;;9.20;;
75864;SDS011;64510;46.704;38.274;2023-02-08T05:18:58;17.00;;;8.15;;
75864;SDS011;64510;46.704;38.274;2023-02-08T05:21:24;18.92;;;10.57;;
75864;SDS011;64510;46.704;38.274;2023-02-08T05:23:50;11.85;;;7.63;;
75864;SDS011;64510;46.704;38.274;2023-02-08T05:26:16;14.20;;;9.48;;
75864;SDS011;64510;46.704;38.274;2023-02-08T05:28:43;13.77;;;8.35;;
75864;SDS011;64510;46.704;38.274;2023-02-08T05:31:13;16.90;;;9.77;;
75864;SDS011;64510;46.704;38.274;2023-02-08T05:33:47;15.50;;;6.63;;
75864;SDS011;64510;46.704;38.274;2023-02-08T05:36:15;14.88;;;8.65;;
75864;SDS011;64510;46.704;38.274;2023-02-08T05:38:41;12.73;;;8.18;;
75864;SDS011;64510;46.704;38.274;2023-02-08T05:41:07;15.95;;;8.73;;
75864;SDS011;64510;46.704;38.274;2023-02-08T05:43:33;12.38;;;7.47;;
75864;SDS011;64510;46.704;38.274;2023-02-08T05:45:59;15.20;;;8.98;;
75864;SDS011;64510;46.704;38.274;2023-02-08T05:48:25;10.90;;;6.40;;
75864;SDS011;64510;46.704;38.274;2023-02-08T05:50:51;15.77;;;8.88;;
75864;SDS011;64510;46.704;38.274;2023-02-08T05:53:17;15.38;;;8.85;;
75864;SDS011;64510;46.704;38.274;2023-02-08T05:55:44;21.65;;;9.05;;
75864;SDS011;64510;46.704;38.274;2023-02-08T05:58:10;15.25;;;8.52;;
75864;SDS011;64510;46.704;38.274;2023-02-08T06:00:37;12.55;;;8.18;;
75864;SDS011;64510;46.704;38.274;2023-02-08T06:03:03;13.48;;;6.78;;
75864;SDS011;64510;46.704;38.274;2023-02-08T06:05:29;16.70;;;8.85;;
75864;SDS011;64510;46.704;38.274;2023-02-08T06:07:55;13.10;;;8.45;;
75864;SDS011;64510;46.704;38.274;2023-02-08T06:10:21;18.98;;;9.57;;
75864;SDS011;64510;46.704;38.274;2023-02-08T06:12:46;14.65;;;7.03;;
75864;SDS011;64510;46.704;38.274;2023-02-08T06:15:12;11.07;;;7.05;;
75864;SDS011;64510;46.704;38.274;2023-02-08T06:17:38;9.10;;;6.65;;
75864;SDS011;64510;46.704;38.274;2023-02-08T06:20:04;11.07;;;7.57;;
75864;SDS011;64510;46.704;38.274;2023-02-08T06:22:30;13.90;;;7.25;;
75864;SDS011;64510;46.704;38.274;2023-02-08T06:24:58;15.73;;;9.63;;
75864;SDS011;64510;46.704;38.274;2023-02-08T06:27:24;13.18;;;7.30;;
75864;SDS011;64510;46.704;38.274;2023-02-08T06:29:50;12.05;;;8.07;;
75864;SDS011;64510;46.704;38.274;2023-02-08T06:32:16;14.88;;;8.10;;
75864;SDS011;64510;46.704;38.274;2023-02-08T06:34:42;9.50;;;5.65;;
75864;SDS011;64510;46.704;38.274;2023-02-08T06:37:08;17.67;;;9.07;;
75864;SDS011;64510;46.704;38.274;2023-02-08T06:39:34;18.15;;;7.60;;
75864;SDS011;64510;46.704;38.274;2023-02-08T06:42:00;12.02;;;6.25;;
75864;SDS011;64510;46.704;38.274;2023-02-08T06:44:26;11.68;;;7.70;;
75864;SDS011;64510;46.704;38.274;2023-02-08T06:46:51;10.75;;;6.82;;
75864;SDS011;64510;46.704;38.274;2023-02-08T06:49:17;14.18;;;8.48;;
75864;SDS011;64510;46.704;38.274;2023-02-08T06:51:43;11.52;;;6.85;;
75864;SDS011;64510;46.704;38.274;2023-02-08T06:54:09;14.70;;;7.97;;
75864;SDS011;64510;46.704;38.274;2023-02-08T06:56:35;14.13;;;8.13;;
75864;SDS011;64510;46.704;38.274;2023-02-08T06:59:01;13.23;;;7.22;;
75864;SDS011;64510;46.704;38.274;2023-02-08T07:01:27;14.77;;;9.05;;
75864;SDS011;64510;46.704;38.274;2023-02-08T07:03:53;14.20;;;8.73;;
75864;SDS011;64510;46.704;38.274;2023-02-08T07:06:19;8.82;;;6.88;;
75864;SDS011;64510;46.704;38.274;2023-02-08T07:08:46;9.27;;;6.65;;
75864;SDS011;64510;46.704;38.274;2023-02-08T07:11:13;17.92;;;7.70;;
75864;SDS011;64510;46.704;38.274;2023-02-08T07:13:40;12.45;;;6.93;;
75864;SDS011;64510;46.704;38.274;2023-02-08T07:16:07;15.18;;;10.18;;
75864;SDS011;64510;46.704;38.274;2023-02-08T07:18:34;14.80;;;8.13;;
75864;SDS011;64510;46.704;38.274;2023-02-08T07:21:01;12.10;;;7.97;;
75864;SDS011;64510;46.704;38.274;2023-02-08T07:23:27;11.10;;;8.20;;
75864;SDS011;64510;46.704;38.274;2023-02-08T07:25:59;15.68;;;9.18;;
75864;SDS011;64510;46.704;38.274;2023-02-08T07:28:27;11.48;;;6.97;;
75864;SDS011;64510;46.704;38.274;2023-02-08T07:30:53;14.25;;;8.55;;
75864;SDS011;64510;46.704;38.274;2023-02-08T07:33:21;9.88;;;7.85;;
75864;SDS011;64510;46.704;38.274;2023-02-08T07:35:48;12.55;;;6.68;;
75864;SDS011;64510;46.704;38.274;2023-02-08T07:38:14;12.63;;;8.32;;
75864;SDS011;64510;46.704;38.274;2023-02-08T07:40:40;13.93;;;7.95;;
75864;SDS011;64510;46.704;38.274;2023-02-08T07:43:06;14.25;;;8.00;;
75864;SDS011;64510;46.704;38.274;2023-02-08T07:45:42;13.88;;;6.85;;
75864;SDS011;64510;46.704;38.274;2023-02-08T07:48:08;13.88;;;8.48;;
75864;SDS011;64510;46.704;38.274;2023-02-08T07:50:33;13.88;;;6.57;;
75864;SDS011;64510;46.704;38.274;2023-02-08T07:52:59;10.70;;;7.57;;
75864;SDS011;64510;46.704;38.274;2023-02-08T07:55:25;11.70;;;7.45;;
75864;SDS011;64510;46.704;38.274;2023-02-08T07:57:53;12.63;;;8.40;;
75864;SDS011;64510;46.704;38.274;2023-02-08T08:00:21;12.23;;;7.57;;
75864;SDS011;64510;46.704;38.274;2023-02-08T08:02:47;9.70;;;5.65;;
75864;SDS011;64510;46.704;38.274;2023-02-08T08:05:15;9.38;;;5.95;;
75864;SDS011;64510;46.704;38.274;2023-02-08T08:07:41;8.80;;;5.57;;
75864;SDS011;64510;46.704;38.274;2023-02-08T08:10:06;13.13;;;6.75;;
75864;SDS011;64510;46.704;38.274;2023-02-08T08:12:33;10.50;;;6.82;;
75864;SDS011;64510;46.704;38.274;2023-02-08T08:14:58;10.43;;;7.10;;
75864;SDS011;64510;46.704;38.274;2023-02-08T08:17:24;13.68;;;7.43;;
75864;SDS011;64510;46.704;38.274;2023-02-08T08:19:50;10.25;;;7.22;;
75864;SDS011;64510;46.704;38.274;2023-02-08T08:22:16;10.27;;;6.38;;
75864;SDS011;64510;46.704;38.274;2023-02-08T08:24:42;9.25;;;6.03;;
75864;SDS011;64510;46.704;38.274;2023-02-08T08:27:08;13.98;;;8.60;;
75864;SDS011;64510;46.704;38.274;2023-02-08T08:29:34;14.18;;;7.22;;
75864;SDS011;64510;46.704;38.274;2023-02-08T08:32:01;9.93;;;7.03;;
75864;SDS011;64510;46.704;38.274;2023-02-08T08:34:28;9.75;;;6.55;;
75864;SDS011;64510;46.704;38.274;2023-02-08T08:36:55;9.73;;;6.38;;
75864;SDS011;64510;46.704;38.274;2023-02-08T08:39:25;11.52;;;6.68;;
75864;SDS011;64510;46.704;38.274;2023-02-08T08:41:57;12.88;;;6.40;;
75864;SDS011;64510;46.704;38.274;2023-02-08T08:44:24;10.50;;;6.72;;
75864;SDS011;64510;46.704;38.274;2023-02-08T08:46:53;13.25;;;7.75;;
75864;SDS011;64510;46.704;38.274;2023-02-08T08:49:21;15.25;;;6.10;;
75864;SDS011;64510;46.704;38.274;2023-02-08T08:51:47;11.32;;;6.47;;
75864;SDS011;64510;46.704;38.274;2023-02-08T08:54:13;8.98;;;5.00;;
75864;SDS011;64510;46.704;38.274;2023-02-08T08:56:39;15.07;;;7.20;;
75864;SDS011;64510;46.704;38.274;2023-02-08T08:59:05;12.35;;;6.15;;
75864;SDS011;64510;46.704;38.274;2023-02-08T09:01:31;10.35;;;6.43;;
75864;SDS011;64510;46.704;38.274;2023-02-08T09:03:57;12.60;;;7.78;;
75864;SDS011;64510;46.704;38.274;2023-02-08T09:06:22;9.60;;;6.05;;
75864;SDS011;64510;46.704;38.274;2023-02-08T09:08:48;10.02;;;7.25;;
75864;SDS011;64510;46.704;38.274;2023-02-08T09:11:14;11.82;;;7.03;;
75864;SDS011;64510;46.704;38.274;2023-02-08T09:13:41;16.52;;;7.55;;
75864;SDS011;64510;46.704;38.274;2023-02-08T09:16:12;9.50;;;4.70;;
75864;SDS011;64510;46.704;38.274;2023-02-08T09:18:41;17.52;;;5.80;;
75864;SDS011;64510;46.704;38.274;2023-02-08T09:21:09;7.10;;;4.78;;
75864;SDS011;64510;46.704;38.274;2023-02-08T09:23:40;13.82;;;6.65;;
75864;SDS011;64510;46.704;38.274;2023-02-08T09:26:07;12.05;;;5.50;;
75864;SDS011;64510;46.704;38.274;2023-02-08T09:28:35;9.48;;;6.05;;
75864;SDS011;64510;46.704;38.274;2023-02-08T09:33:44;10.65;;;6.30;;
75864;SDS011;64510;46.704;38.274;2023-02-08T09:36:11;11.45;;;5.95;;
75864;SDS011;64510;46.704;38.274;2023-02-08T09:38:37;12.98;;;6.80;;
75864;SDS011;64510;46.704;38.274;2023-02-08T09:46:26;9.60;;;6.45;;
75864;SDS011;64510;46.704;38.274;2023-02-08T09:48:56;11.52;;;5.30;;
75864;SDS011;64510;46.704;38.274;2023-02-08T09:54:01;11.02;;;6.40;;
75864;SDS011;64510;46.704;38.274;2023-02-08T09:56:48;8.65;;;4.85;;
75864;SDS011;64510;46.704;38.274;2023-02-08T09:59:17;14.68;;;6.57;;
75864;SDS011;64510;46.704;38.274;2023-02-08T10:01:48;9.30;;;6.85;;
75864;SDS011;64510;46.704;38.274;2023-02-08T10:04:23;12.93;;;6.63;;
75864;SDS011;64510;46.704;38.274;2023-02-08T10:06:54;7.70;;;4.35;;
75864;SDS011;64510;46.704;38.274;2023-02-08T10:09:21;11.80;;;5.82;;
75864;SDS011;64510;46.704;38.274;2023-02-08T10:16:58;9.35;;;5.55;;
75864;SDS011;64510;46.704;38.274;2023-02-08T10:33:34;12.23;;;5.70;;
75864;SDS011;64510;46.704;38.274;2023-02-08T10:36:11;7.57;;;4.30;;
75864;SDS011;64510;46.704;38.274;2023-02-08T10:38:43;11.38;;;5.97;;
75864;SDS011;64510;46.704;38.274;2023-02-08T10:41:14;8.82;;;4.90;;
75864;SDS011;64510;46.704;38.274;2023-02-08T10:43:47;11.00;;;5.72;;
75864;SDS011;64510;46.704;38.274;2023-02-08T10:46:23;9.27;;;5.03;;
75864;SDS011;64510;46.704;38.274;2023-02-08T10:48:56;9.10;;;4.90;;
75864;SDS011;64510;46.704;38.274;2023-02-08T10:51:29;11.95;;;5.72;;
75864;SDS011;64510;46.704;38.274;2023-02-08T10:53:56;9.82;;;6.45;;
75864;SDS011;64510;46.704;38.274;2023-02-08T10:56:33;8.63;;;5.22;;
75864;SDS011;64510;46.704;38.274;2023-02-08T10:59:05;8.45;;;5.88;;
75864;SDS011;64510;46.704;38.274;2023-02-08T11:01:38;7.88;;;5.28;;
75864;SDS011;64510;46.704;38.274;2023-02-08T11:04:06;8.95;;;6.22;;
75864;SDS011;64510;46.704;38.274;2023-02-08T11:06:34;9.77;;;5.28;;
75864;SDS011;64510;46.704;38.274;2023-02-08T11:09:00;11.65;;;6.22;;
75864;SDS011;64510;46.704;38.274;2023-02-08T11:11:28;8.60;;;5.40;;
75864;SDS011;64510;46.704;38.274;2023-02-08T11:14:07;10.35;;;5.30;;
75864;SDS011;64510;46.704;38.274;2023-02-08T11:16:35;11.82;;;5.32;;
75864;SDS011;64510;46.704;38.274;2023-02-08T11:19:03;16.35;;;8.85;;
75864;SDS011;64510;46.704;38.274;2023-02-08T11:21:36;12.03;;;6.97;;
75864;SDS011;64510;46.704;38.274;2023-02-08T11:24:07;13.75;;;7.28;;
75864;SDS011;64510;46.704;38.274;2023-02-08T11:30:16;9.07;;;5.45;;
75864;SDS011;64510;46.704;38.274;2023-02-08T11:32:46;9.73;;;6.43;;
75864;SDS011;64510;46.704;38.274;2023-02-08T11:37:52;9.07;;;5.35;;
75864;SDS011;64510;46.704;38.274;2023-02-08T11:40:27;9.65;;;5.75;;
75864;SDS011;64510;46.704;38.274;2023-02-08T11:42:58;8.27;;;5.70;;
75864;SDS011;64510;46.704;38.274;2023-02-08T11:45:26;12.77;;;6.13;;
75864;SDS011;64510;46.704;38.274;2023-02-08T11:47:55;10.63;;;5.75;;
75864;SDS011;64510;46.704;38.274;2023-02-08T11:53:01;7.78;;;5.30;;
75864;SDS011;64510;46.704;38.274;2023-02-08T11:55:31;10.25;;;5.90;;
75864;SDS011;64510;46.704;38.274;2023-02-08T11:57:59;9.63;;;4.93;;
75864;SDS011;64510;46.704;38.274;2023-02-08T12:00:31;13.32;;;5.45;;
75864;SDS011;64510;46.704;38.274;2023-02-08T12:11:24;9.43;;;5.13;;
75864;SDS011;64510;46.704;38.274;2023-02-08T12:14:08;12.40;;;6.15;;
75864;SDS011;64510;46.704;38.274;2023-02-08T12:22:27;8.05;;;4.78;;
75864;SDS011;64510;46.704;38.274;2023-02-08T12:25:09;8.93;;;6.55;;
75864;SDS011;64510;46.704;38.274;2023-02-08T12:55:20;15.05;;;6.55;;
75864;SDS011;64510;46.704;38.274;2023-02-08T12:57:51;11.75;;;6.45;;
75864;SDS011;64510;46.704;38.274;2023-02-08T13:00:21;6.88;;;4.65;;
75864;SDS011;64510;46.704;38.274;2023-02-08T13:03:13;10.82;;;6.30;;
75864;SDS011;64510;46.704;38.274;2023-02-08T13:05:56;7.40;;;4.50;;
75864;SDS011;64510;46.704;38.274;2023-02-08T13:08:30;8.10;;;5.13;;
75864;SDS011;64510;46.704;38.274;2023-02-08T13:11:05;10.45;;;5.38;;
75864;SDS011;64510;46.704;38.274;2023-02-08T13:13:37;7.38;;;5.45;;
75864;SDS011;64510;46.704;38.274;2023-02-08T13:18:42;13.90;;;5.82;;
75864;SDS011;64510;46.704;38.274;2023-02-08T13:21:13;8.57;;;5.35;;
75864;SDS011;64510;46.704;38.274;2023-02-08T13:23:46;12.88;;;5.75;;
75864;SDS011;64510;46.704;38.274;2023-02-08T13:26:20;12.85;;;6.65;;
75864;SDS011;64510;46.704;38.274;2023-02-08T13:28:52;6.88;;;5.28;;
75864;SDS011;64510;46.704;38.274;2023-02-08T13:31:22;8.60;;;5.60;;
75864;SDS011;64510;46.704;38.274;2023-02-08T13:33:59;8.18;;;5.55;;
75864;SDS011;64510;46.704;38.274;2023-02-08T13:36:33;10.27;;;5.82;;
75864;SDS011;64510;46.704;38.274;2023-02-08T13:39:36;11.40;;;5.60;;
75864;SDS011;64510;46.704;38.274;2023-02-08T13:41:59;9.60;;;5.35;;
75864;SDS011;64510;46.704;38.274;2023-02-08T13:44:35;10.25;;;6.13;;
75864;SDS011;64510;46.704;38.274;2023-02-08T13:47:03;10.88;;;6.15;;
75864;SDS011;64510;46.704;38.274;2023-02-08T13:49:41;8.07;;;5.93;;
75864;SDS011;64510;46.704;38.274;2023-02-08T14:14:02;9.65;;;6.38;;
75864;SDS011;64510;46.704;38.274;2023-02-08T14:16:35;9.25;;;5.70;;
75864;SDS011;64510;46.704;38.274;2023-02-08T14:21:44;13.00;;;6.22;;
75864;SDS011;64510;46.704;38.274;2023-02-08T14:24:26;8.45;;;5.22;;
75864;SDS011;64510;46.704;38.274;2023-02-08T14:32:41;9.88;;;7.15;;
75864;SDS011;64510;46.704;38.274;2023-02-08T14:35:17;12.32;;;7.30;;
75864;SDS011;64510;46.704;38.274;2023-02-08T14:37:50;12.73;;;6.43;;
75864;SDS011;64510;46.704;38.274;2023-02-08T14:40:54;9.77;;;5.65;;
75864;SDS011;64510;46.704;38.274;2023-02-08T14:43:37;11.20;;;6.22;;
75864;SDS011;64510;46.704;38.274;2023-02-08T14:49:17;11.25;;;4.90;;
75864;SDS011;64510;46.704;38.274;2023-02-08T14:51:57;19.00;;;7.13;;
75864;SDS011;64510;46.704;38.274;2023-02-08T14:54:32;10.15;;;5.95;;
75864;SDS011;64510;46.704;38.274;2023-02-08T14:57:05;10.15;;;5.35;;
75864;SDS011;64510;46.704;38.274;2023-02-08T14:59:43;9.52;;;5.43;;
75864;SDS011;64510;46.704;38.274;2023-02-08T15:02:14;11.80;;;6.13;;
75864;SDS011;64510;46.704;38.274;2023-02-08T15:04:50;11.95;;;7.38;;
75864;SDS011;64510;46.704;38.274;2023-02-08T15:10:11;9.38;;;4.35;;
75864;SDS011;64510;46.704;38.274;2023-02-08T15:12:39;11.88;;;6.97;;
75864;SDS011;64510;46.704;38.274;2023-02-08T15:15:19;8.13;;;4.95;;
75864;SDS011;64510;46.704;38.274;2023-02-08T15:17:49;11.13;;;6.63;;
75864;SDS011;64510;46.704;38.274;2023-02-08T15:20:20;14.35;;;6.63;;
75864;SDS011;64510;46.704;38.274;2023-02-08T15:22:56;10.80;;;5.00;;
75864;SDS011;64510;46.704;38.274;2023-02-08T15:25:25;9.30;;;5.75;;
75864;SDS011;64510;46.704;38.274;2023-02-08T15:27:59;12.27;;;7.30;;
75864;SDS011;64510;46.704;38.274;2023-02-08T15:30:30;10.70;;;5.65;;
75864;SDS011;64510;46.704;38.274;2023-02-08T15:33:01;11.52;;;6.15;;
75864;SDS011;64510;46.704;38.274;2023-02-08T15:35:33;15.68;;;7.53;;
75864;SDS011;64510;46.704;38.274;2023-02-08T15:38:00;9.70;;;5.85;;
75864;SDS011;64510;46.704;38.274;2023-02-08T15:40:32;8.55;;;5.07;;
75864;SDS011;64510;46.704;38.274;2023-02-08T15:45:31;8.85;;;4.50;;
75864;SDS011;64510;46.704;38.274;2023-02-08T15:47:58;11.02;;;7.38;;
75864;SDS011;64510;46.704;38.274;2023-02-08T15:50:25;11.20;;;5.82;;
75864;SDS011;64510;46.704;38.274;2023-02-08T15:53:02;12.15;;;6.93;;
75864;SDS011;64510;46.704;38.274;2023-02-08T15:55:32;10.18;;;6.45;;
75864;SDS011;64510;46.704;38.274;2023-02-08T15:58:07;10.55;;;7.05;;
75864;SDS011;64510;46.704;38.274;2023-02-08T16:01:16;7.80;;;4.40;;
75864;SDS011;64510;46.704;38.274;2023-02-08T16:03:47;10.00;;;5.90;;
75864;SDS011;64510;46.704;38.274;2023-02-08T16:06:19;8.15;;;5.60;;
75864;SDS011;64510;46.704;38.274;2023-02-08T16:08:48;8.02;;;5.50;;
75864;SDS011;64510;46.704;38.274;2023-02-08T16:11:23;7.50;;;5.15;;
75864;SDS011;64510;46.704;38.274;2023-02-08T16:13:52;9.68;;;5.20;;
75864;SDS011;64510;46.704;38.274;2023-02-08T16:16:22;10.15;;;5.93;;
75864;SDS011;64510;46.704;38.274;2023-02-08T16:21:38;8.48;;;5.22;;
75864;SDS011;64510;46.704;38.274;2023-02-08T16:24:18;11.43;;;6.05;;
75864;SDS011;64510;46.704;38.274;2023-02-08T16:27:03;13.20;;;6.88;;
75864;SDS011;64510;46.704;38.274;2023-02-08T16:34:44;13.70;;;7.13;;
75864;SDS011;64510;46.704;38.274;2023-02-08T16:37:22;10.68;;;6.30;;
75864;SDS011;64510;46.704;38.274;2023-02-08T16:39:54;15.10;;;8.80;;
75864;SDS011;64510;46.704;38.274;2023-02-08T16:50:06;11.88;;;6.00;;
75864;SDS011;64510;46.704;38.274;2023-02-08T16:52:33;12.38;;;6.18;;
75864;SDS011;64510;46.704;38.274;2023-02-08T16:54:59;9.18;;;6.65;;
75864;SDS011;64510;46.704;38.274;2023-02-08T16:57:42;10.25;;;5.80;;
75864;SDS011;64510;46.704;38.274;2023-02-08T17:00:17;6.40;;;4.18;;
75864;SDS011;64510;46.704;38.274;2023-02-08T17:02:43;11.52;;;6.75;;
75864;SDS011;64510;46.704;38.274;2023-02-08T17:05:09;9.85;;;6.05;;
75864;SDS011;64510;46.704;38.274;2023-02-08T17:07:36;13.32;;;6.63;;
75864;SDS011;64510;46.704;38.274;2023-02-08T17:10:03;15.20;;;6.95;;
75864;SDS011;64510;46.704;38.274;2023-02-08T17:12:31;12.98;;;6.80;;
75864;SDS011;64510;46.704;38.274;2023-02-08T17:14:56;10.70;;;7.00;;
75864;SDS011;64510;46.704;38.274;2023-02-08T17:17:22;11.50;;;8.07;;
75864;SDS011;64510;46.704;38.274;2023-02-08T17:19:48;14.77;;;7.35;;
75864;SDS011;64510;46.704;38.274;2023-02-08T17:22:14;8.10;;;5.15;;
75864;SDS011;64510;46.704;38.274;2023-02-08T17:24:40;10.50;;;5.43;;
75864;SDS011;64510;46.704;38.274;2023-02-08T17:27:06;12.52;;;5.72;;
75864;SDS011;64510;46.704;38.274;2023-02-08T17:29:35;10.93;;;5.95;;
75864;SDS011;64510;46.704;38.274;2023-02-08T17:32:01;8.25;;;5.68;;
75864;SDS011;64510;46.704;38.274;2023-02-08T17:34:27;13.77;;;5.25;;
75864;SDS011;64510;46.704;38.274;2023-02-08T17:36:53;11.23;;;6.10;;
75864;SDS011;64510;46.704;38.274;2023-02-08T17:39:18;9.63;;;6.43;;